sensor_id;sensor_type;location;lat;lon;timestamp;pressure;altitude;pressure_sealevel;temperature;humidity
62333;BME280;48624;49.812;8.562;2023-05-17T00:01:24;101142.06;;;7.74;78.61
62333;BME280;48624;49.812;8.562;2023-05-17T00:03:49;101147.97;;;7.80;78.24
62333;BME280;48624;49.812;8.562;2023-05-17T00:06:18;101148.19;;;7.54;79.41
62333;BME280;48624;49.812;8.562;2023-05-17T00:08:43;101152.88;;;7.68;79.29
62333;BME280;48624;49.812;8.562;2023-05-17T00:11:09;101161.44;;;7.73;79.40
62333;BME280;48624;49.812;8.562;2023-05-17T00:13:34;101155.28;;;7.73;79.16
62333;BME280;48624;49.812;8.562;2023-05-17T00:15:59;101161.81;;;7.85;78.82
62333;BME280;48624;49.812;8.562;2023-05-17T00:18:25;101148.72;;;8.02;77.58
62333;BME280;48624;49.812;8.562;2023-05-17T00:20:50;101155.19;;;7.95;78.14
62333;BME280;48624;49.812;8.562;2023-05-17T00:23:15;101153.25;;;8.18;76.69
62333;BME280;48624;49.812;8.562;2023-05-17T00:25:41;101156.03;;;7.96;78.03
62333;BME280;48624;49.812;8.562;2023-05-17T00:28:06;101157.88;;;7.94;78.95
62333;BME280;48624;49.812;8.562;2023-05-17T00:30:31;101167.94;;;7.85;79.35
62333;BME280;48624;49.812;8.562;2023-05-17T00:32:57;101162.44;;;7.90;79.10
62333;BME280;48624;49.812;8.562;2023-05-17T00:35:22;101159.47;;;7.98;79.04
62333;BME280;48624;49.812;8.562;2023-05-17T00:37:48;101150.53;;;8.00;78.74
62333;BME280;48624;49.812;8.562;2023-05-17T00:40:14;101162.44;;;7.90;79.30
62333;BME280;48624;49.812;8.562;2023-05-17T00:42:40;101164.25;;;7.89;79.26
62333;BME280;48624;49.812;8.562;2023-05-17T00:45:06;101159.94;;;7.87;79.78
62333;BME280;48624;49.812;8.562;2023-05-17T00:47:31;101162.06;;;7.78;80.62
62333;BME280;48624;49.812;8.562;2023-05-17T00:49:57;101164.19;;;7.70;81.33
62333;BME280;48624;49.812;8.562;2023-05-17T00:52:22;101158.28;;;7.65;81.26
62333;BME280;48624;49.812;8.562;2023-05-17T00:54:49;101159.59;;;7.75;80.89
62333;BME280;48624;49.812;8.562;2023-05-17T00:57:15;101163.31;;;7.90;80.36
62333;BME280;48624;49.812;8.562;2023-05-17T00:59:43;101158.88;;;7.72;80.51
62333;BME280;48624;49.812;8.562;2023-05-17T01:02:09;101159.03;;;7.88;80.07
62333;BME280;48624;49.812;8.562;2023-05-17T01:04:36;101157.09;;;7.91;79.25
62333;BME280;48624;49.812;8.562;2023-05-17T01:07:02;101168.94;;;8.02;78.00
62333;BME280;48624;49.812;8.562;2023-05-17T01:09:27;101165.91;;;7.92;79.30
62333;BME280;48624;49.812;8.562;2023-05-17T01:12:06;101169.81;;;8.02;77.49
62333;BME280;48624;49.812;8.562;2023-05-17T01:14:44;101171.03;;;7.95;77.78
62333;BME280;48624;49.812;8.562;2023-05-17T01:17:16;101176.28;;;7.95;78.04
62333;BME280;48624;49.812;8.562;2023-05-17T01:19:52;101184.47;;;7.70;80.14
62333;BME280;48624;49.812;8.562;2023-05-17T01:22:38;101180.88;;;7.71;80.27
62333;BME280;48624;49.812;8.562;2023-05-17T01:27:40;101179.75;;;7.76;79.44
62333;BME280;48624;49.812;8.562;2023-05-17T01:30:08;101183.59;;;7.69;79.49
62333;BME280;48624;49.812;8.562;2023-05-17T01:32:36;101189.41;;;7.57;80.69
62333;BME280;48624;49.812;8.562;2023-05-17T01:35:03;101197.13;;;7.61;79.95
62333;BME280;48624;49.812;8.562;2023-05-17T01:37:29;101192.28;;;7.50;81.42
62333;BME280;48624;49.812;8.562;2023-05-17T01:39:54;101198.25;;;7.56;80.71
62333;BME280;48624;49.812;8.562;2023-05-17T01:42:22;101196.78;;;7.48;80.92
62333;BME280;48624;49.812;8.562;2023-05-17T01:45:16;101200.47;;;7.44;81.31
62333;BME280;48624;49.812;8.562;2023-05-17T01:47:52;101196.13;;;7.43;81.22
62333;BME280;48624;49.812;8.562;2023-05-17T01:50:23;101190.44;;;7.53;80.26
62333;BME280;48624;49.812;8.562;2023-05-17T01:52:54;101199.03;;;7.37;82.30
62333;BME280;48624;49.812;8.562;2023-05-17T01:55:53;101205.44;;;7.31;82.24
62333;BME280;48624;49.812;8.562;2023-05-17T01:58:24;101199.66;;;7.21;82.36
62333;BME280;48624;49.812;8.562;2023-05-17T02:00:51;101200.91;;;7.13;83.39
62333;BME280;48624;49.812;8.562;2023-05-17T02:03:18;101204.34;;;7.15;82.42
62333;BME280;48624;49.812;8.562;2023-05-17T02:05:44;101205.31;;;7.12;82.80
62333;BME280;48624;49.812;8.562;2023-05-17T02:08:10;101213.53;;;7.04;83.95
62333;BME280;48624;49.812;8.562;2023-05-17T02:10:35;101207.88;;;6.93;84.23
62333;BME280;48624;49.812;8.562;2023-05-17T02:13:00;101203.75;;;6.86;85.04
62333;BME280;48624;49.812;8.562;2023-05-17T02:15:26;101214.34;;;6.84;85.13
62333;BME280;48624;49.812;8.562;2023-05-17T02:17:51;101213.38;;;6.87;84.86
62333;BME280;48624;49.812;8.562;2023-05-17T02:20:16;101217.16;;;6.79;85.81
62333;BME280;48624;49.812;8.562;2023-05-17T02:22:43;101224.03;;;6.84;85.26
62333;BME280;48624;49.812;8.562;2023-05-17T02:25:09;101224.03;;;6.84;85.11
62333;BME280;48624;49.812;8.562;2023-05-17T02:27:34;101217.22;;;6.78;85.37
62333;BME280;48624;49.812;8.562;2023-05-17T02:30:00;101229.50;;;6.55;87.28
62333;BME280;48624;49.812;8.562;2023-05-17T02:32:27;101223.56;;;6.72;85.21
62333;BME280;48624;49.812;8.562;2023-05-17T02:34:53;101222.22;;;6.62;86.20
62333;BME280;48624;49.812;8.562;2023-05-17T02:37:18;101225.16;;;6.54;87.00
62333;BME280;48624;49.812;8.562;2023-05-17T02:39:44;101219.91;;;6.54;86.64
62333;BME280;48624;49.812;8.562;2023-05-17T02:42:09;101228.09;;;6.46;86.72
62333;BME280;48624;49.812;8.562;2023-05-17T02:44:35;101224.03;;;6.37;87.38
62333;BME280;48624;49.812;8.562;2023-05-17T02:47:00;101230.16;;;6.38;87.57
62333;BME280;48624;49.812;8.562;2023-05-17T02:49:25;101232.97;;;6.33;88.72
62333;BME280;48624;49.812;8.562;2023-05-17T02:51:50;101243.59;;;6.30;88.86
62333;BME280;48624;49.812;8.562;2023-05-17T02:54:16;101252.41;;;6.29;88.77
62333;BME280;48624;49.812;8.562;2023-05-17T02:56:42;101251.56;;;6.29;88.09
62333;BME280;48624;49.812;8.562;2023-05-17T02:59:08;101245.59;;;6.23;88.58
62333;BME280;48624;49.812;8.562;2023-05-17T03:01:33;101246.31;;;6.29;87.93
62333;BME280;48624;49.812;8.562;2023-05-17T03:03:59;101247.59;;;6.17;88.72
62333;BME280;48624;49.812;8.562;2023-05-17T03:06:24;101252.91;;;6.15;89.44
62333;BME280;48624;49.812;8.562;2023-05-17T03:08:49;101261.09;;;6.07;89.73
62333;BME280;48624;49.812;8.562;2023-05-17T03:11:14;101255.28;;;5.97;90.68
62333;BME280;48624;49.812;8.562;2023-05-17T03:13:40;101245.44;;;6.04;90.37
62333;BME280;48624;49.812;8.562;2023-05-17T03:16:05;101259.53;;;6.02;90.83
62333;BME280;48624;49.812;8.562;2023-05-17T03:18:30;101259.69;;;5.97;91.33
62333;BME280;48624;49.812;8.562;2023-05-17T03:20:56;101250.22;;;5.91;91.75
62333;BME280;48624;49.812;8.562;2023-05-17T03:23:21;101258.00;;;5.94;91.87
62333;BME280;48624;49.812;8.562;2023-05-17T03:25:47;101260.06;;;6.11;89.74
62333;BME280;48624;49.812;8.562;2023-05-17T03:28:12;101258.56;;;5.79;90.94
62333;BME280;48624;49.812;8.562;2023-05-17T03:30:37;101258.75;;;5.73;91.57
62333;BME280;48624;49.812;8.562;2023-05-17T03:33:02;101263.50;;;5.88;90.62
62333;BME280;48624;49.812;8.562;2023-05-17T03:35:28;101274.19;;;5.83;91.50
62333;BME280;48624;49.812;8.562;2023-05-17T03:37:53;101269.66;;;5.87;90.88
62333;BME280;48624;49.812;8.562;2023-05-17T03:40:18;101274.66;;;5.69;91.17
62333;BME280;48624;49.812;8.562;2023-05-17T03:42:46;101280.47;;;5.78;90.63
62333;BME280;48624;49.812;8.562;2023-05-17T03:45:12;101292.34;;;5.90;89.62
62333;BME280;48624;49.812;8.562;2023-05-17T03:47:37;101280.63;;;5.48;91.03
62333;BME280;48624;49.812;8.562;2023-05-17T03:50:03;101272.34;;;5.33;91.55
62333;BME280;48624;49.812;8.562;2023-05-17T03:52:28;101285.06;;;5.19;92.24
62333;BME280;48624;49.812;8.562;2023-05-17T03:54:54;101279.44;;;5.03;94.78
62333;BME280;48624;49.812;8.562;2023-05-17T03:57:20;101278.28;;;5.11;94.18
62333;BME280;48624;49.812;8.562;2023-05-17T03:59:45;101277.44;;;5.38;92.93
62333;BME280;48624;49.812;8.562;2023-05-17T04:02:11;101284.13;;;5.48;92.77
62333;BME280;48624;49.812;8.562;2023-05-17T04:04:37;101279.84;;;5.44;92.94
62333;BME280;48624;49.812;8.562;2023-05-17T04:07:03;101283.47;;;5.41;93.52
62333;BME280;48624;49.812;8.562;2023-05-17T04:09:29;101287.84;;;5.41;94.28
62333;BME280;48624;49.812;8.562;2023-05-17T04:11:55;101278.63;;;5.54;94.31
62333;BME280;48624;49.812;8.562;2023-05-17T04:14:20;101282.38;;;5.74;92.66
62333;BME280;48624;49.812;8.562;2023-05-17T04:16:46;101287.56;;;5.76;93.32
62333;BME280;48624;49.812;8.562;2023-05-17T04:19:11;101293.44;;;5.84;92.01
62333;BME280;48624;49.812;8.562;2023-05-17T04:21:37;101294.16;;;5.89;92.66
62333;BME280;48624;49.812;8.562;2023-05-17T04:24:02;101292.94;;;5.98;92.11
62333;BME280;48624;49.812;8.562;2023-05-17T04:26:27;101290.63;;;6.16;91.19
62333;BME280;48624;49.812;8.562;2023-05-17T04:28:53;101293.38;;;6.13;90.72
62333;BME280;48624;49.812;8.562;2023-05-17T04:31:18;101299.44;;;6.38;90.16
62333;BME280;48624;49.812;8.562;2023-05-17T04:33:43;101308.50;;;6.31;90.43
62333;BME280;48624;49.812;8.562;2023-05-17T04:36:08;101299.09;;;6.48;89.61
62333;BME280;48624;49.812;8.562;2023-05-17T04:38:34;101306.47;;;6.62;88.95
62333;BME280;48624;49.812;8.562;2023-05-17T04:41:03;101301.75;;;6.72;88.66
62333;BME280;48624;49.812;8.562;2023-05-17T04:43:31;101314.00;;;6.73;89.13
62333;BME280;48624;49.812;8.562;2023-05-17T04:45:58;101312.91;;;6.78;88.62
62333;BME280;48624;49.812;8.562;2023-05-17T04:48:24;101308.25;;;6.85;88.98
62333;BME280;48624;49.812;8.562;2023-05-17T04:50:51;101316.53;;;6.98;87.69
62333;BME280;48624;49.812;8.562;2023-05-17T04:53:16;101317.41;;;6.99;87.96
62333;BME280;48624;49.812;8.562;2023-05-17T04:55:42;101324.25;;;7.03;87.79
62333;BME280;48624;49.812;8.562;2023-05-17T04:58:07;101329.16;;;7.12;87.34
62333;BME280;48624;49.812;8.562;2023-05-17T05:00:33;101333.66;;;7.10;87.83
62333;BME280;48624;49.812;8.562;2023-05-17T05:02:59;101332.59;;;7.14;87.60
62333;BME280;48624;49.812;8.562;2023-05-17T05:05:24;101337.56;;;7.00;88.84
62333;BME280;48624;49.812;8.562;2023-05-17T05:07:50;101345.34;;;7.03;89.12
62333;BME280;48624;49.812;8.562;2023-05-17T05:10:15;101340.81;;;7.06;89.59
62333;BME280;48624;49.812;8.562;2023-05-17T05:12:41;101344.81;;;7.17;89.17
62333;BME280;48624;49.812;8.562;2023-05-17T05:15:07;101350.94;;;7.17;89.94
62333;BME280;48624;49.812;8.562;2023-05-17T05:17:32;101361.91;;;7.29;88.88
62333;BME280;48624;49.812;8.562;2023-05-17T05:19:58;101356.19;;;7.40;88.40
62333;BME280;48624;49.812;8.562;2023-05-17T05:22:25;101364.00;;;7.43;88.78
62333;BME280;48624;49.812;8.562;2023-05-17T05:24:51;101369.50;;;7.36;89.60
62333;BME280;48624;49.812;8.562;2023-05-17T05:27:16;101370.25;;;7.40;89.16
62333;BME280;48624;49.812;8.562;2023-05-17T05:29:42;101380.75;;;7.42;89.14
62333;BME280;48624;49.812;8.562;2023-05-17T05:32:07;101381.91;;;7.57;88.73
62333;BME280;48624;49.812;8.562;2023-05-17T05:34:33;101377.56;;;7.56;89.54
62333;BME280;48624;49.812;8.562;2023-05-17T05:36:59;101376.00;;;7.72;88.83
62333;BME280;48624;49.812;8.562;2023-05-17T05:39:25;101378.25;;;7.82;88.43
62333;BME280;48624;49.812;8.562;2023-05-17T05:41:53;101378.72;;;7.71;90.47
62333;BME280;48624;49.812;8.562;2023-05-17T05:44:19;101379.66;;;7.90;89.14
62333;BME280;48624;49.812;8.562;2023-05-17T05:46:44;101364.19;;;8.03;88.30
62333;BME280;48624;49.812;8.562;2023-05-17T05:49:09;101381.59;;;8.08;88.98
62333;BME280;48624;49.812;8.562;2023-05-17T05:51:35;101374.53;;;8.08;89.24
62333;BME280;48624;49.812;8.562;2023-05-17T05:54:00;101385.28;;;8.24;88.12
62333;BME280;48624;49.812;8.562;2023-05-17T05:56:25;101391.91;;;8.55;86.54
62333;BME280;48624;49.812;8.562;2023-05-17T05:58:54;101391.44;;;8.45;86.68
62333;BME280;48624;49.812;8.562;2023-05-17T06:01:19;101398.56;;;8.64;87.19
62333;BME280;48624;49.812;8.562;2023-05-17T06:03:45;101397.56;;;8.67;86.20
62333;BME280;48624;49.812;8.562;2023-05-17T06:06:11;101394.59;;;8.94;85.77
62333;BME280;48624;49.812;8.562;2023-05-17T06:08:37;101398.81;;;9.17;84.79
62333;BME280;48624;49.812;8.562;2023-05-17T06:11:02;101402.59;;;9.11;82.86
62333;BME280;48624;49.812;8.562;2023-05-17T06:13:27;101402.31;;;9.18;82.08
62333;BME280;48624;49.812;8.562;2023-05-17T06:15:53;101401.59;;;9.33;80.89
62333;BME280;48624;49.812;8.562;2023-05-17T06:18:18;101407.03;;;9.30;81.31
62333;BME280;48624;49.812;8.562;2023-05-17T06:20:44;101411.81;;;9.41;81.75
62333;BME280;48624;49.812;8.562;2023-05-17T06:23:10;101412.00;;;9.55;81.65
62333;BME280;48624;49.812;8.562;2023-05-17T06:25:35;101408.16;;;9.43;81.18
62333;BME280;48624;49.812;8.562;2023-05-17T06:28:02;101420.84;;;9.74;80.83
62333;BME280;48624;49.812;8.562;2023-05-17T06:30:28;101418.59;;;9.83;80.66
62333;BME280;48624;49.812;8.562;2023-05-17T06:32:54;101419.50;;;10.02;78.89
62333;BME280;48624;49.812;8.562;2023-05-17T06:35:20;101424.84;;;10.00;78.44
62333;BME280;48624;49.812;8.562;2023-05-17T06:37:45;101417.38;;;9.91;78.45
62333;BME280;48624;49.812;8.562;2023-05-17T06:40:11;101429.69;;;10.09;77.02
62333;BME280;48624;49.812;8.562;2023-05-17T06:42:36;101420.81;;;10.28;76.68
62333;BME280;48624;49.812;8.562;2023-05-17T06:45:02;101426.03;;;10.30;76.99
62333;BME280;48624;49.812;8.562;2023-05-17T06:47:27;101436.41;;;10.34;76.88
62333;BME280;48624;49.812;8.562;2023-05-17T06:49:52;101430.25;;;10.51;76.99
62333;BME280;48624;49.812;8.562;2023-05-17T06:52:18;101437.16;;;10.36;76.24
62333;BME280;48624;49.812;8.562;2023-05-17T06:54:43;101434.13;;;10.26;75.96
62333;BME280;48624;49.812;8.562;2023-05-17T06:57:09;101440.44;;;10.41;75.25
62333;BME280;48624;49.812;8.562;2023-05-17T06:59:35;101449.91;;;10.81;75.21
62333;BME280;48624;49.812;8.562;2023-05-17T07:02:02;101446.69;;;10.92;76.00
62333;BME280;48624;49.812;8.562;2023-05-17T07:04:27;101446.97;;;10.69;74.50
62333;BME280;48624;49.812;8.562;2023-05-17T07:06:53;101444.22;;;10.89;74.19
62333;BME280;48624;49.812;8.562;2023-05-17T07:09:19;101445.69;;;11.10;74.66
62333;BME280;48624;49.812;8.562;2023-05-17T07:11:45;101453.78;;;11.25;74.81
62333;BME280;48624;49.812;8.562;2023-05-17T07:14:11;101454.56;;;10.93;72.71
62333;BME280;48624;49.812;8.562;2023-05-17T07:16:36;101449.75;;;10.84;73.86
62333;BME280;48624;49.812;8.562;2023-05-17T07:19:02;101441.59;;;11.05;73.23
62333;BME280;48624;49.812;8.562;2023-05-17T07:21:28;101452.16;;;10.89;72.76
62333;BME280;48624;49.812;8.562;2023-05-17T07:23:54;101457.72;;;11.34;72.11
62333;BME280;48624;49.812;8.562;2023-05-17T07:26:19;101454.47;;;11.29;72.47
62333;BME280;48624;49.812;8.562;2023-05-17T07:28:45;101451.03;;;11.43;71.62
62333;BME280;48624;49.812;8.562;2023-05-17T07:31:10;101456.16;;;11.62;71.57
62333;BME280;48624;49.812;8.562;2023-05-17T07:33:37;101465.09;;;11.61;70.30
62333;BME280;48624;49.812;8.562;2023-05-17T07:36:03;101465.66;;;11.66;69.70
62333;BME280;48624;49.812;8.562;2023-05-17T07:38:28;101460.69;;;11.76;69.91
62333;BME280;48624;49.812;8.562;2023-05-17T07:40:54;101454.78;;;11.71;70.57
62333;BME280;48624;49.812;8.562;2023-05-17T07:43:20;101450.25;;;11.57;69.23
62333;BME280;48624;49.812;8.562;2023-05-17T07:45:45;101454.09;;;11.83;68.86
62333;BME280;48624;49.812;8.562;2023-05-17T07:48:11;101454.78;;;11.55;68.24
62333;BME280;48624;49.812;8.562;2023-05-17T07:50:37;101457.47;;;12.01;67.42
62333;BME280;48624;49.812;8.562;2023-05-17T07:53:02;101458.69;;;12.12;68.21
62333;BME280;48624;49.812;8.562;2023-05-17T07:55:27;101454.56;;;12.67;65.97
62333;BME280;48624;49.812;8.562;2023-05-17T07:57:53;101451.69;;;12.56;66.03
62333;BME280;48624;49.812;8.562;2023-05-17T08:00:18;101455.63;;;12.34;68.02
62333;BME280;48624;49.812;8.562;2023-05-17T08:02:44;101453.59;;;12.54;65.71
62333;BME280;48624;49.812;8.562;2023-05-17T08:05:10;101447.91;;;12.89;64.94
62333;BME280;48624;49.812;8.562;2023-05-17T08:07:35;101446.00;;;12.91;63.75
62333;BME280;48624;49.812;8.562;2023-05-17T08:10:01;101443.44;;;13.18;64.48
62333;BME280;48624;49.812;8.562;2023-05-17T08:12:26;101439.47;;;12.82;64.05
62333;BME280;48624;49.812;8.562;2023-05-17T08:14:51;101437.88;;;13.36;59.35
62333;BME280;48624;49.812;8.562;2023-05-17T08:17:17;101440.53;;;13.36;58.65
62333;BME280;48624;49.812;8.562;2023-05-17T08:19:42;101444.34;;;13.61;58.77
62333;BME280;48624;49.812;8.562;2023-05-17T08:22:07;101436.72;;;13.55;56.46
62333;BME280;48624;49.812;8.562;2023-05-17T08:24:33;101432.16;;;13.84;57.66
62333;BME280;48624;49.812;8.562;2023-05-17T08:26:58;101437.06;;;13.78;56.38
62333;BME280;48624;49.812;8.562;2023-05-17T08:29:24;101436.78;;;13.95;53.48
62333;BME280;48624;49.812;8.562;2023-05-17T08:31:49;101443.22;;;13.51;56.65
62333;BME280;48624;49.812;8.562;2023-05-17T08:34:15;101445.88;;;13.36;56.61
62333;BME280;48624;49.812;8.562;2023-05-17T08:36:40;101434.56;;;14.02;55.08
62333;BME280;48624;49.812;8.562;2023-05-17T08:39:06;101434.78;;;13.71;55.80
62333;BME280;48624;49.812;8.562;2023-05-17T08:41:32;101419.38;;;13.77;55.21
62333;BME280;48624;49.812;8.562;2023-05-17T08:43:58;101429.00;;;13.92;54.08
62333;BME280;48624;49.812;8.562;2023-05-17T08:46:25;101429.81;;;13.52;57.27
62333;BME280;48624;49.812;8.562;2023-05-17T08:48:52;101430.81;;;13.92;55.25
62333;BME280;48624;49.812;8.562;2023-05-17T08:51:20;101426.75;;;13.99;53.81
62333;BME280;48624;49.812;8.562;2023-05-17T08:53:47;101431.91;;;13.74;56.83
62333;BME280;48624;49.812;8.562;2023-05-17T08:56:15;101434.78;;;13.71;58.01
62333;BME280;48624;49.812;8.562;2023-05-17T08:58:42;101431.56;;;13.24;59.15
62333;BME280;48624;49.812;8.562;2023-05-17T09:01:09;101433.28;;;13.25;56.17
62333;BME280;48624;49.812;8.562;2023-05-17T09:03:35;101427.34;;;13.49;55.36
62333;BME280;48624;49.812;8.562;2023-05-17T09:06:01;101423.13;;;13.59;54.86
62333;BME280;48624;49.812;8.562;2023-05-17T09:08:27;101440.00;;;13.16;58.81
62333;BME280;48624;49.812;8.562;2023-05-17T09:10:54;101440.72;;;13.62;57.01
62333;BME280;48624;49.812;8.562;2023-05-17T09:13:20;101432.06;;;13.58;55.74
62333;BME280;48624;49.812;8.562;2023-05-17T09:15:47;101430.06;;;14.02;54.19
62333;BME280;48624;49.812;8.562;2023-05-17T09:18:13;101426.00;;;14.50;54.42
62333;BME280;48624;49.812;8.562;2023-05-17T09:20:39;101425.84;;;14.13;56.59
62333;BME280;48624;49.812;8.562;2023-05-17T09:23:09;101433.22;;;14.22;53.43
62333;BME280;48624;49.812;8.562;2023-05-17T09:25:37;101425.94;;;14.78;51.28
62333;BME280;48624;49.812;8.562;2023-05-17T09:28:06;101429.22;;;14.94;52.78
62333;BME280;48624;49.812;8.562;2023-05-17T09:30:34;101431.13;;;14.79;50.11
62333;BME280;48624;49.812;8.562;2023-05-17T09:33:06;101433.81;;;15.30;49.67
62333;BME280;48624;49.812;8.562;2023-05-17T09:35:33;101423.81;;;14.17;54.30
62333;BME280;48624;49.812;8.562;2023-05-17T09:38:12;101429.00;;;14.33;51.47
62333;BME280;48624;49.812;8.562;2023-05-17T09:40:44;101428.66;;;14.50;51.23
62333;BME280;48624;49.812;8.562;2023-05-17T09:43:15;101427.03;;;14.22;53.66
62333;BME280;48624;49.812;8.562;2023-05-17T09:45:40;101430.28;;;14.66;53.19
62333;BME280;48624;49.812;8.562;2023-05-17T09:48:13;101432.34;;;14.09;53.41
62333;BME280;48624;49.812;8.562;2023-05-17T09:50:46;101431.91;;;14.02;55.02
62333;BME280;48624;49.812;8.562;2023-05-17T09:53:25;101423.47;;;13.95;55.05
62333;BME280;48624;49.812;8.562;2023-05-17T09:55:52;101426.19;;;13.81;53.62
62333;BME280;48624;49.812;8.562;2023-05-17T09:58:17;101427.81;;;13.83;53.30
62333;BME280;48624;49.812;8.562;2023-05-17T10:00:43;101422.56;;;13.40;55.86
62333;BME280;48624;49.812;8.562;2023-05-17T10:03:10;101429.47;;;13.71;55.39
62333;BME280;48624;49.812;8.562;2023-05-17T10:05:38;101428.75;;;14.23;53.94
62333;BME280;48624;49.812;8.562;2023-05-17T10:08:06;101422.91;;;14.56;53.07
62333;BME280;48624;49.812;8.562;2023-05-17T10:10:32;101423.25;;;14.78;52.67
62333;BME280;48624;49.812;8.562;2023-05-17T10:12:59;101424.44;;;15.24;50.54
62333;BME280;48624;49.812;8.562;2023-05-17T10:15:25;101423.84;;;15.07;50.88
62333;BME280;48624;49.812;8.562;2023-05-17T10:17:52;101423.00;;;15.68;49.53
62333;BME280;48624;49.812;8.562;2023-05-17T10:20:19;101422.78;;;15.96;48.59
62333;BME280;48624;49.812;8.562;2023-05-17T10:22:45;101418.00;;;16.13;48.08
62333;BME280;48624;49.812;8.562;2023-05-17T10:25:12;101420.63;;;15.77;48.74
62333;BME280;48624;49.812;8.562;2023-05-17T10:27:38;101423.84;;;15.45;50.07
62333;BME280;48624;49.812;8.562;2023-05-17T10:30:04;101413.13;;;15.20;48.08
62333;BME280;48624;49.812;8.562;2023-05-17T10:32:32;101425.28;;;15.37;47.53
62333;BME280;48624;49.812;8.562;2023-05-17T10:34:58;101421.59;;;15.27;47.23
62333;BME280;48624;49.812;8.562;2023-05-17T10:37:24;101417.19;;;15.26;51.11
62333;BME280;48624;49.812;8.562;2023-05-17T10:39:50;101409.66;;;15.07;48.66
62333;BME280;48624;49.812;8.562;2023-05-17T10:42:18;101409.94;;;15.28;46.63
62333;BME280;48624;49.812;8.562;2023-05-17T10:44:44;101414.63;;;14.74;49.42
62333;BME280;48624;49.812;8.562;2023-05-17T10:47:10;101405.09;;;14.57;50.21
62333;BME280;48624;49.812;8.562;2023-05-17T10:49:37;101405.06;;;15.09;48.50
62333;BME280;48624;49.812;8.562;2023-05-17T10:52:15;101413.72;;;15.00;47.57
62333;BME280;48624;49.812;8.562;2023-05-17T10:54:43;101400.91;;;15.42;45.72
62333;BME280;48624;49.812;8.562;2023-05-17T10:57:39;101402.81;;;15.64;45.12
62333;BME280;48624;49.812;8.562;2023-05-17T11:00:04;101404.53;;;15.90;45.86
62333;BME280;48624;49.812;8.562;2023-05-17T11:02:34;101401.63;;;16.40;44.74
62333;BME280;48624;49.812;8.562;2023-05-17T11:05:04;101395.69;;;16.82;44.70
62333;BME280;48624;49.812;8.562;2023-05-17T11:07:30;101393.91;;;17.50;41.95
62333;BME280;48624;49.812;8.562;2023-05-17T11:12:40;101387.63;;;17.72;39.86
62333;BME280;48624;49.812;8.562;2023-05-17T11:15:09;101379.81;;;18.75;40.51
62333;BME280;48624;49.812;8.562;2023-05-17T11:17:46;101385.59;;;18.18;41.27
62333;BME280;48624;49.812;8.562;2023-05-17T11:25:15;101383.97;;;16.26;44.04
62333;BME280;48624;49.812;8.562;2023-05-17T11:27:45;101397.81;;;16.08;45.74
62333;BME280;48624;49.812;8.562;2023-05-17T11:30:24;101379.91;;;16.56;43.30
62333;BME280;48624;49.812;8.562;2023-05-17T11:35:26;101396.06;;;16.32;44.67
62333;BME280;48624;49.812;8.562;2023-05-17T11:38:11;101392.69;;;16.64;44.10
62333;BME280;48624;49.812;8.562;2023-05-17T11:40:38;101393.28;;;17.13;44.03
62333;BME280;48624;49.812;8.562;2023-05-17T11:43:18;101392.16;;;17.16;45.25
62333;BME280;48624;49.812;8.562;2023-05-17T11:45:57;101385.88;;;17.05;43.95
62333;BME280;48624;49.812;8.562;2023-05-17T11:48:26;101381.75;;;18.11;41.61
62333;BME280;48624;49.812;8.562;2023-05-17T11:50:53;101378.06;;;18.64;39.64
62333;BME280;48624;49.812;8.562;2023-05-17T11:53:19;101379.69;;;19.18;38.61
62333;BME280;48624;49.812;8.562;2023-05-17T11:55:46;101378.16;;;18.53;39.75
62333;BME280;48624;49.812;8.562;2023-05-17T11:58:14;101377.22;;;18.64;38.50
62333;BME280;48624;49.812;8.562;2023-05-17T12:00:41;101382.66;;;18.52;40.41
62333;BME280;48624;49.812;8.562;2023-05-17T12:03:20;101382.19;;;17.62;41.10
62333;BME280;48624;49.812;8.562;2023-05-17T12:05:47;101375.69;;;18.40;40.67
62333;BME280;48624;49.812;8.562;2023-05-17T12:08:17;101369.94;;;18.02;39.10
62333;BME280;48624;49.812;8.562;2023-05-17T12:10:49;101368.53;;;18.40;40.31
62333;BME280;48624;49.812;8.562;2023-05-17T12:13:16;101367.03;;;18.26;40.03
62333;BME280;48624;49.812;8.562;2023-05-17T12:15:44;101367.88;;;18.06;38.56
62333;BME280;48624;49.812;8.562;2023-05-17T12:18:10;101360.59;;;18.39;38.30
62333;BME280;48624;49.812;8.562;2023-05-17T12:20:35;101372.03;;;17.77;39.06
62333;BME280;48624;49.812;8.562;2023-05-17T12:23:03;101351.34;;;18.63;38.63
62333;BME280;48624;49.812;8.562;2023-05-17T12:25:28;101355.84;;;18.83;38.64
62333;BME280;48624;49.812;8.562;2023-05-17T12:28:13;101361.06;;;19.65;35.30
62333;BME280;48624;49.812;8.562;2023-05-17T12:30:38;101360.66;;;19.60;35.94
62333;BME280;48624;49.812;8.562;2023-05-17T12:33:05;101350.75;;;18.90;36.30
62333;BME280;48624;49.812;8.562;2023-05-17T12:35:31;101342.59;;;20.20;35.94
62333;BME280;48624;49.812;8.562;2023-05-17T12:37:57;101347.25;;;21.40;33.96
62333;BME280;48624;49.812;8.562;2023-05-17T12:40:22;101341.34;;;21.36;32.06
62333;BME280;48624;49.812;8.562;2023-05-17T12:42:48;101339.94;;;21.68;33.15
62333;BME280;48624;49.812;8.562;2023-05-17T12:45:13;101346.75;;;20.80;32.64
62333;BME280;48624;49.812;8.562;2023-05-17T12:47:39;101344.78;;;19.87;35.23
62333;BME280;48624;49.812;8.562;2023-05-17T12:50:04;101348.91;;;18.91;35.97
62333;BME280;48624;49.812;8.562;2023-05-17T12:52:33;101341.78;;;18.60;36.59
62333;BME280;48624;49.812;8.562;2023-05-17T12:55:04;101344.94;;;19.65;34.63
62333;BME280;48624;49.812;8.562;2023-05-17T12:57:29;101344.53;;;19.60;34.71
62333;BME280;48624;49.812;8.562;2023-05-17T12:59:55;101334.31;;;18.74;37.30
62333;BME280;48624;49.812;8.562;2023-05-17T13:02:20;101329.56;;;18.46;36.24
62333;BME280;48624;49.812;8.562;2023-05-17T13:04:46;101334.31;;;19.15;37.22
62333;BME280;48624;49.812;8.562;2023-05-17T13:07:11;101332.56;;;18.94;38.04